createdAt,value
2022-08-04T00:02:03.457Z,97619.03
2022-08-04T00:04:45.523Z,97621.19
2022-08-04T00:07:54.960Z,97612.53
2022-08-04T00:10:23.501Z,97648.81
2022-08-04T00:15:48.596Z,97607.09
2022-08-04T00:21:26.172Z,97603.53
2022-08-04T00:50:07.270Z,97627.13
2022-08-04T00:52:51.433Z,97586.50
2022-08-04T00:55:42.958Z,97584.59
2022-08-04T01:08:44.745Z,97632.19
2022-08-04T01:11:57.421Z,97633.81
2022-08-04T01:15:04.118Z,97643.00
2022-08-04T01:18:38.096Z,97607.88
2022-08-04T01:22:01.313Z,97639.38
2022-08-04T01:25:04.918Z,97649.41
2022-08-04T01:27:59.561Z,97651.06
2022-08-04T01:30:33.915Z,97610.34
2022-08-04T01:33:28.740Z,97610.09
2022-08-04T01:36:17.341Z,97606.28
2022-08-04T01:38:54.145Z,97606.81
2022-08-04T01:41:32.529Z,97611.66
2022-08-04T01:44:07.072Z,97623.00
2022-08-04T01:46:40.512Z,97604.25
2022-08-04T01:49:44.224Z,97640.59
2022-08-04T01:55:54.190Z,97601.69
2022-08-04T01:58:28.414Z,97613.03
2022-08-04T02:01:12.705Z,97591.31
2022-08-04T02:04:19.703Z,97599.13
2022-08-04T02:10:05.583Z,97628.41
2022-08-04T02:12:48.606Z,97610.19
2022-08-04T02:15:30.932Z,97633.53
2022-08-04T02:18:05.562Z,97630.75
2022-08-04T02:20:47.123Z,97585.13
2022-08-04T02:23:38.091Z,97625.88
2022-08-04T02:26:19.315Z,97626.66
2022-08-04T02:29:11.430Z,97608.50
2022-08-04T02:31:49.609Z,97611.97
2022-08-04T02:34:37.686Z,97624.66
2022-08-04T02:37:18.618Z,97585.56
2022-08-04T02:42:20.655Z,97588.78
2022-08-04T02:44:59.873Z,97586.88
2022-08-04T02:48:19.385Z,97604.09
2022-08-04T02:50:28.954Z,97629.31
2022-08-04T02:53:11.626Z,97606.09
2022-08-04T02:55:50.931Z,97583.91
2022-08-04T02:58:26.556Z,97595.47
2022-08-04T03:00:55.730Z,97594.56
2022-08-04T03:03:45.053Z,97585.88
2022-08-04T03:06:34.133Z,97598.59
2022-08-04T03:09:29.664Z,97594.13
2022-08-04T03:12:02.367Z,97630.19
2022-08-04T03:14:53.087Z,97589.47
2022-08-04T03:17:31.553Z,97625.09
2022-08-04T03:20:23.322Z,97633.50
2022-08-04T03:23:13.533Z,97627.56
2022-08-04T03:26:09.926Z,97590.66
2022-08-04T03:28:46.947Z,97625.00
2022-08-04T03:31:35.302Z,97620.81
2022-08-04T03:34:35.701Z,97579.56
2022-08-04T03:37:40.149Z,97637.03
2022-08-04T03:40:22.095Z,97626.41
2022-08-04T03:43:04.212Z,97635.00
2022-08-04T03:46:17.829Z,97612.66
2022-08-04T03:49:02.792Z,97632.63
2022-08-04T03:52:07.244Z,97634.13
2022-08-04T03:55:23.062Z,97636.75
2022-08-04T03:58:18.178Z,97630.13
2022-08-04T04:01:20.787Z,97633.59
2022-08-04T04:04:22.076Z,97592.88
2022-08-04T04:07:36.365Z,97621.66
2022-08-04T04:10:33.126Z,97592.84
2022-08-04T04:13:31.046Z,97632.13
2022-08-04T04:16:35.739Z,97632.38
2022-08-04T04:19:15.891Z,97600.53
2022-08-04T04:22:26.460Z,97606.94
2022-08-04T04:25:05.361Z,97597.72
2022-08-04T04:27:43.017Z,97605.47
2022-08-04T04:30:24.571Z,97620.44
2022-08-04T04:33:13.742Z,97638.78
2022-08-04T04:36:01.047Z,97634.91
2022-08-04T04:39:10.988Z,97642.75
2022-08-04T04:42:13.110Z,97616.25
2022-08-04T04:44:51.519Z,97646.28
2022-08-04T04:48:09.090Z,97643.53
2022-08-04T04:50:58.556Z,97649.81
2022-08-04T04:54:03.729Z,97654.53
2022-08-04T04:56:53.717Z,97648.75
2022-08-04T04:59:27.768Z,97648.28
2022-08-04T05:02:12.890Z,97651.66
2022-08-04T05:05:18.013Z,97651.72
2022-08-04T05:08:45.118Z,97650.09
2022-08-04T05:11:46.586Z,97659.44
2022-08-04T05:14:45.053Z,97656.84
2022-08-04T05:17:27.197Z,97652.34
2022-08-04T05:20:08.126Z,97661.03
2022-08-04T05:22:56.993Z,97654.75
2022-08-04T05:25:26.684Z,97673.22
2022-08-04T05:28:03.787Z,97662.72
2022-08-04T05:30:35.240Z,97668.63
2022-08-04T05:33:11.193Z,97667.00
2022-08-04T05:36:16.514Z,97665.13
2022-08-04T05:38:37.937Z,97670.69
2022-08-04T05:41:09.423Z,97662.25
2022-08-04T05:43:41.745Z,97647.56
2022-08-04T05:46:10.303Z,97666.19
2022-08-04T05:48:42.682Z,97665.81
2022-08-04T05:51:11.359Z,97674.66
2022-08-04T05:53:39.096Z,97667.75
2022-08-04T05:56:07.722Z,97671.03
2022-08-04T05:58:35.868Z,97671.66
2022-08-04T06:01:04.092Z,97664.41
2022-08-04T06:03:32.584Z,97668.03
2022-08-04T06:06:00.061Z,97671.28
2022-08-04T06:08:26.955Z,97662.38
2022-08-04T06:10:57.303Z,97649.66
2022-08-04T06:13:49.076Z,97665.44
2022-08-04T06:16:29.795Z,97671.94
2022-08-04T06:20:00.492Z,97678.19
2022-08-04T06:21:55.326Z,97671.69
2022-08-04T06:24:24.980Z,97680.34
2022-08-04T06:26:55.543Z,97680.38
2022-08-04T06:29:41.262Z,97685.78
2022-08-04T06:32:33.619Z,97674.13
2022-08-04T06:35:07.798Z,97677.38
2022-08-04T06:37:42.284Z,97676.56
2022-08-04T06:40:31.205Z,97687.16
2022-08-04T06:43:06.393Z,97677.88
2022-08-04T06:45:36.422Z,97676.19
2022-08-04T06:48:06.501Z,97672.34
2022-08-04T06:51:27.048Z,97681.53
2022-08-04T06:53:24.185Z,97685.50
2022-08-04T06:55:52.257Z,97675.06
2022-08-04T06:58:23.478Z,97672.97
2022-08-04T07:00:52.085Z,97672.53
2022-08-04T07:03:22.292Z,97684.56
2022-08-04T07:05:51.298Z,97681.25
2022-08-04T07:08:18.619Z,97677.84
2022-08-04T07:10:46.349Z,97688.19
2022-08-04T07:13:13.494Z,97686.09
2022-08-04T07:15:45.527Z,97686.16
2022-08-04T07:18:12.488Z,97678.09
2022-08-04T07:20:43.912Z,97688.84
2022-08-04T07:23:13.713Z,97679.72
2022-08-04T07:25:59.628Z,97690.75
2022-08-04T07:28:30.509Z,97684.78
2022-08-04T07:30:58.355Z,97691.25
2022-08-04T07:33:26.225Z,97675.06
2022-08-04T07:36:04.449Z,97676.28
2022-08-04T07:38:37.319Z,97683.84
2022-08-04T07:41:35.504Z,97677.31
2022-08-04T07:43:54.873Z,97676.31
2022-08-04T07:46:21.775Z,97680.56
2022-08-04T07:48:48.793Z,97679.63
2022-08-04T07:51:16.995Z,97668.59
2022-08-04T07:53:54.064Z,97670.63
2022-08-04T07:56:22.395Z,97669.94
2022-08-04T07:58:49.845Z,97677.03
2022-08-04T08:01:17.393Z,97673.13
2022-08-04T08:03:44.316Z,97671.19
2022-08-04T08:06:31.439Z,97687.94
2022-08-04T08:09:12.160Z,97687.22
2022-08-04T08:12:35.441Z,97690.09
2022-08-04T08:14:36.332Z,97673.13
2022-08-04T08:17:04.519Z,97681.16
2022-08-04T08:19:32.418Z,97678.97
2022-08-04T08:22:01.189Z,97663.94
2022-08-04T08:24:34.872Z,97678.66
2022-08-04T08:27:04.453Z,97680.56
2022-08-04T08:29:33.929Z,97677.47
2022-08-04T08:32:07.746Z,97679.13
2022-08-04T08:34:40.534Z,97682.06
2022-08-04T08:37:19.294Z,97681.41
2022-08-04T08:39:53.053Z,97683.28
2022-08-04T08:42:54.935Z,97684.31
2022-08-04T08:45:58.423Z,97684.13
2022-08-04T08:49:02.567Z,97678.97
2022-08-04T08:51:47.589Z,97680.13
2022-08-04T08:54:32.597Z,97676.03
2022-08-04T08:57:23.932Z,97681.53
2022-08-04T09:00:16.963Z,97679.13
2022-08-04T09:03:24.831Z,97669.50
2022-08-04T09:06:03.279Z,97686.03
2022-08-04T09:09:01.226Z,97685.75
2022-08-04T09:11:41.994Z,97678.81
2022-08-04T09:14:26.054Z,97684.63
2022-08-04T09:16:57.150Z,97681.00
2022-08-04T09:19:38.890Z,97671.47
2022-08-04T09:22:13.095Z,97675.94
2022-08-04T09:25:01.186Z,97684.44
2022-08-04T09:27:55.658Z,97675.47
2022-08-04T09:30:31.937Z,97665.59
2022-08-04T09:33:22.862Z,97675.88
2022-08-04T09:36:13.663Z,97680.03
2022-08-04T09:39:03.315Z,97673.31
2022-08-04T09:41:52.475Z,97670.31
2022-08-04T09:44:49.270Z,97657.19
2022-08-04T09:47:23.497Z,97660.25
2022-08-04T09:49:59.105Z,97672.91
2022-08-04T09:52:30.344Z,97673.19
2022-08-04T09:55:09.142Z,97676.72
2022-08-04T09:57:53.533Z,97679.31
2022-08-04T10:00:40.291Z,97680.63
2022-08-04T10:03:19.696Z,97682.09
2022-08-04T10:06:09.830Z,97677.31
2022-08-04T10:09:07.066Z,97673.03
2022-08-04T10:11:55.854Z,97669.69
2022-08-04T10:14:44.951Z,97678.81
2022-08-04T10:17:28.734Z,97677.66
2022-08-04T10:20:36.503Z,97673.91
2022-08-04T10:23:13.059Z,97679.94
2022-08-04T10:26:08.599Z,97655.59
2022-08-04T10:28:52.526Z,97658.91
2022-08-04T10:31:30.486Z,97673.47
2022-08-04T10:34:10.244Z,97673.09
2022-08-04T10:36:47.647Z,97663.59
2022-08-04T10:39:43.644Z,97660.97
2022-08-04T10:42:27.481Z,97676.91
2022-08-04T10:45:16.667Z,97665.91
2022-08-04T10:48:07.055Z,97654.44
2022-08-04T10:50:42.914Z,97655.63
2022-08-04T10:53:22.357Z,97654.22
2022-08-04T10:56:18.269Z,97665.34
2022-08-04T10:59:04.611Z,97644.09
2022-08-04T11:01:50.734Z,97664.44
2022-08-04T11:04:46.852Z,97643.13
2022-08-04T11:07:14.762Z,97652.69
2022-08-04T11:09:44.157Z,97662.59
2022-08-04T11:12:17.787Z,97656.41
2022-08-04T11:14:54.863Z,97646.63
2022-08-04T11:17:27.019Z,97631.09
2022-08-04T11:20:34.141Z,97655.94
2022-08-04T11:23:01.121Z,97653.31
2022-08-04T11:25:33.780Z,97649.94
2022-08-04T11:28:16.208Z,97635.25
2022-08-04T11:31:26.908Z,97635.63
2022-08-04T11:34:10.577Z,97626.72
2022-08-04T11:36:54.963Z,97634.16
2022-08-04T11:39:29.867Z,97629.53
2022-08-04T11:42:28.985Z,97627.34
2022-08-04T11:45:04.568Z,97623.50
2022-08-04T11:47:33.640Z,97610.88
2022-08-04T11:50:08.832Z,97620.41
2022-08-04T11:52:39.920Z,97623.66
2022-08-04T11:55:11.409Z,97630.81
2022-08-04T11:57:39.002Z,97622.47
2022-08-04T12:00:12.827Z,97597.63
2022-08-04T12:02:51.379Z,97618.69
2022-08-04T12:05:36.504Z,97612.06
2022-08-04T12:08:35.164Z,97616.31
2022-08-04T12:11:01.802Z,97607.47
2022-08-04T12:13:33.141Z,97607.22
2022-08-04T12:16:03.629Z,97606.25
2022-08-04T12:18:39.894Z,97585.91
2022-08-04T12:21:23.624Z,97599.38
2022-08-04T12:24:00.617Z,97572.06
2022-08-04T12:26:30.969Z,97590.28
2022-08-04T12:29:10.817Z,97586.44
2022-08-04T12:31:58.324Z,97598.09
2022-08-04T12:34:51.667Z,97587.94
2022-08-04T12:37:41.430Z,97590.63
2022-08-04T12:40:27.528Z,97587.16
2022-08-04T12:43:07.505Z,97590.63
2022-08-04T12:45:34.992Z,97581.09
2022-08-04T12:48:06.416Z,97574.44
2022-08-04T12:50:33.794Z,97582.22
2022-08-04T12:53:02.987Z,97579.19
2022-08-04T12:55:37.354Z,97563.06
2022-08-04T12:58:13.573Z,97567.88
2022-08-04T13:00:44.491Z,97570.53
2022-08-04T13:03:15.658Z,97578.38
2022-08-04T13:05:45.045Z,97576.66
2022-08-04T13:08:13.371Z,97561.69
2022-08-04T13:10:42.796Z,97564.06
2022-08-04T13:13:23.860Z,97549.19
2022-08-04T13:16:14.754Z,97563.03
2022-08-04T13:18:49.031Z,97563.88
2022-08-04T13:21:21.386Z,97560.22
2022-08-04T13:24:20.561Z,97565.03
2022-08-04T13:26:58.398Z,97544.22
2022-08-04T13:29:59.660Z,97560.00
2022-08-04T13:32:29.782Z,97546.50
2022-08-04T13:34:59.937Z,97544.28
2022-08-04T13:37:32.444Z,97535.75
2022-08-04T13:40:00.575Z,97545.31
2022-08-04T13:42:28.401Z,97520.22
2022-08-04T13:44:58.470Z,97531.38
2022-08-04T13:47:53.209Z,97538.09
2022-08-04T13:50:23.387Z,97529.38
2022-08-04T13:52:53.414Z,97530.41
2022-08-04T13:55:30.497Z,97526.38
2022-08-04T13:58:23.403Z,97526.47
2022-08-04T14:01:07.603Z,97526.88
2022-08-04T14:03:54.018Z,97511.66
2022-08-04T14:06:48.550Z,97511.41
2022-08-04T14:09:17.928Z,97515.69
2022-08-04T14:12:09.681Z,97512.09
2022-08-04T14:14:53.374Z,97503.81
2022-08-04T14:17:30.811Z,97507.28
2022-08-04T14:20:01.380Z,97501.47
2022-08-04T14:22:30.829Z,97503.06
2022-08-04T14:25:04.509Z,97508.66
2022-08-04T14:27:54.588Z,97507.88
2022-08-04T14:30:23.965Z,97499.38
2022-08-04T14:34:02.283Z,97490.63
2022-08-04T14:36:01.471Z,97497.06
2022-08-04T14:38:45.390Z,97499.59
2022-08-04T14:41:13.160Z,97485.53
2022-08-04T14:43:47.289Z,97482.34
2022-08-04T14:46:14.390Z,97482.06
2022-08-04T14:49:02.313Z,97478.22
2022-08-04T14:51:36.727Z,97474.81
2022-08-04T14:54:08.228Z,97475.16
2022-08-04T14:56:46.763Z,97487.75
2022-08-04T14:59:15.021Z,97484.00
2022-08-04T15:01:43.524Z,97466.41
2022-08-04T15:04:11.497Z,97477.47
2022-08-04T15:06:38.362Z,97481.47
2022-08-04T15:09:08.866Z,97460.44
2022-08-04T15:11:41.517Z,97457.59
2022-08-04T15:14:35.945Z,97477.66
2022-08-04T15:16:57.225Z,97475.69
2022-08-04T15:19:24.495Z,97461.91
2022-08-04T15:21:55.037Z,97473.38
2022-08-04T15:24:27.383Z,97461.84
2022-08-04T15:26:57.801Z,97473.84
2022-08-04T15:30:00.247Z,97459.38
2022-08-04T15:32:30.911Z,97459.50
2022-08-04T15:35:03.888Z,97457.50
2022-08-04T15:37:36.977Z,97466.69
2022-08-04T15:40:12.539Z,97471.25
2022-08-04T15:42:41.584Z,97469.13
2022-08-04T15:46:37.144Z,97473.28
2022-08-04T15:48:11.637Z,97469.25
2022-08-04T15:50:58.545Z,97466.63
2022-08-04T15:53:36.518Z,97473.38
2022-08-04T15:56:26.343Z,97469.09
2022-08-04T15:58:57.310Z,97468.19
2022-08-04T16:01:24.353Z,97458.94
2022-08-04T16:04:00.974Z,97450.03
2022-08-04T16:06:29.205Z,97456.44
2022-08-04T16:09:01.739Z,97446.09
2022-08-04T16:11:37.234Z,97462.88
2022-08-04T16:14:04.041Z,97458.31
2022-08-04T16:16:36.548Z,97459.38
2022-08-04T16:19:08.363Z,97462.78
2022-08-04T16:21:47.189Z,97460.78
2022-08-04T16:24:29.267Z,97461.31
2022-08-04T16:26:58.055Z,97461.25
2022-08-04T16:29:32.387Z,97470.72
2022-08-04T16:32:05.085Z,97471.06
2022-08-04T16:34:48.062Z,97473.16
2022-08-04T16:37:18.296Z,97461.69
2022-08-04T16:39:49.949Z,97474.03
2022-08-04T16:42:29.952Z,97482.31
2022-08-04T16:45:11.659Z,97489.19
2022-08-04T16:47:47.217Z,97481.34
2022-08-04T16:50:17.455Z,97486.25
2022-08-04T16:52:48.393Z,97485.44
2022-08-04T16:55:16.321Z,97480.91
2022-08-04T16:57:46.756Z,97490.00
2022-08-04T17:00:14.748Z,97535.75
2022-08-04T17:02:42.865Z,97533.78
2022-08-04T17:05:37.966Z,97581.88
2022-08-04T17:08:28.623Z,97604.06
2022-08-04T17:10:53.745Z,97615.13
2022-08-04T17:14:00.879Z,97596.25
2022-08-04T17:16:22.574Z,97586.31
2022-08-04T17:18:51.824Z,97600.94
2022-08-04T17:21:23.394Z,97610.91
2022-08-04T17:24:14.020Z,97587.63
2022-08-04T17:26:51.939Z,97568.63
2022-08-04T17:29:43.622Z,97545.06
2022-08-04T17:32:22.144Z,97557.72
2022-08-04T17:34:51.383Z,97561.59
2022-08-04T17:37:38.071Z,97554.22
2022-08-04T17:40:17.979Z,97543.34
2022-08-04T17:42:45.768Z,97567.94
2022-08-04T17:45:51.391Z,97542.03
2022-08-04T17:48:24.571Z,97552.47
2022-08-04T17:50:51.883Z,97553.06
2022-08-04T17:53:53.033Z,97558.19
2022-08-04T17:56:36.334Z,97568.13
2022-08-04T17:59:55.760Z,97543.19
2022-08-04T18:02:10.500Z,97573.03
2022-08-04T18:05:07.564Z,97573.44
2022-08-04T18:08:38.068Z,97576.59
2022-08-04T18:13:42.703Z,97559.19
2022-08-04T18:16:22.097Z,97578.97
2022-08-04T18:19:11.601Z,97578.97
2022-08-04T18:21:46.834Z,97553.50
2022-08-04T18:24:34.243Z,97583.56
2022-08-04T18:27:14.559Z,97587.31
2022-08-04T18:29:41.467Z,97577.56
2022-08-04T18:32:33.035Z,97550.53
2022-08-04T18:35:05.530Z,97580.03
2022-08-04T18:38:05.207Z,97574.66
2022-08-04T18:40:26.727Z,97578.94
2022-08-04T18:42:58.308Z,97579.94
2022-08-04T18:45:34.183Z,97579.38
2022-08-04T18:48:02.215Z,97582.34
2022-08-04T18:50:40.056Z,97586.44
2022-08-04T18:53:17.655Z,97589.09
2022-08-04T18:55:56.997Z,97581.25
2022-08-04T18:58:27.399Z,97586.38
2022-08-04T19:00:55.878Z,97576.41
2022-08-04T19:03:23.492Z,97588.34
2022-08-04T19:05:53.687Z,97590.19
2022-08-04T19:08:33.183Z,97558.53
2022-08-04T19:11:37.462Z,97592.94
2022-08-04T19:13:58.090Z,97582.66
2022-08-04T19:16:28.660Z,97582.72
2022-08-04T19:18:56.563Z,97591.13
2022-08-04T19:22:00.874Z,97590.34
2022-08-04T19:24:33.039Z,97593.31
2022-08-04T19:26:59.057Z,97597.94
2022-08-04T19:29:25.653Z,97593.34
2022-08-04T19:32:05.230Z,97593.63
2022-08-04T19:34:45.617Z,97607.00
2022-08-04T19:37:15.347Z,97612.66
2022-08-04T19:39:46.829Z,97635.50
2022-08-04T19:42:14.678Z,97635.59
2022-08-04T19:44:43.798Z,97648.66
2022-08-04T19:48:16.688Z,97662.47
2022-08-04T19:50:03.210Z,97663.81
2022-08-04T19:52:34.205Z,97658.41
2022-08-04T19:55:09.827Z,97667.09
2022-08-04T19:57:46.487Z,97670.88
2022-08-04T20:00:17.973Z,97678.72
2022-08-04T20:03:01.199Z,97679.00
2022-08-04T20:05:52.675Z,97662.75
2022-08-04T20:08:15.381Z,97664.34
2022-08-04T20:10:51.440Z,97668.44
2022-08-04T20:13:18.550Z,97668.69
2022-08-04T20:15:57.586Z,97667.06
2022-08-04T20:18:35.734Z,97667.63
2022-08-04T20:21:03.973Z,97668.97
2022-08-04T20:23:48.183Z,97667.06
2022-08-04T20:26:15.449Z,97659.47
2022-08-04T20:28:42.291Z,97662.19
2022-08-04T20:31:18.398Z,97649.41
2022-08-04T20:33:49.279Z,97657.78
2022-08-04T20:36:21.630Z,97654.00
2022-08-04T20:38:54.651Z,97652.91
2022-08-04T20:41:22.055Z,97638.78
2022-08-04T20:43:50.056Z,97655.06
2022-08-04T20:46:29.268Z,97640.13
2022-08-04T20:48:57.775Z,97653.91
2022-08-04T20:51:32.042Z,97641.69
2022-08-04T20:54:00.944Z,97652.78
2022-08-04T20:56:31.066Z,97653.63
2022-08-04T20:58:59.832Z,97644.66
2022-08-04T21:01:30.172Z,97635.94
2022-08-04T21:04:27.124Z,97639.19
2022-08-04T21:06:55.587Z,97641.88
2022-08-04T21:09:36.987Z,97631.53
2022-08-04T21:12:04.860Z,97631.53
2022-08-04T21:14:31.503Z,97645.06
2022-08-04T21:16:59.741Z,97644.78
2022-08-04T21:19:28.024Z,97645.56
2022-08-04T21:21:54.843Z,97643.38
2022-08-04T21:24:26.135Z,97647.78
2022-08-04T21:26:56.686Z,97636.94
2022-08-04T21:29:29.570Z,97634.75
2022-08-04T21:32:07.753Z,97651.31
2022-08-04T21:34:39.446Z,97634.44
2022-08-04T21:37:10.497Z,97648.84
2022-08-04T21:39:59.118Z,97656.97
2022-08-04T21:42:29.800Z,97661.31
2022-08-04T21:44:58.234Z,97657.50
2022-08-04T21:47:24.952Z,97664.78
2022-08-04T21:49:56.239Z,97658.03
2022-08-04T21:52:24.587Z,97676.16
2022-08-04T21:54:54.988Z,97683.97
2022-08-04T21:57:22.794Z,97681.94
2022-08-04T21:59:52.714Z,97692.28
2022-08-04T22:02:22.112Z,97690.09
2022-08-04T22:04:51.953Z,97681.09
2022-08-04T22:07:23.162Z,97700.09
2022-08-04T22:10:02.263Z,97704.41
2022-08-04T22:12:30.794Z,97703.81
2022-08-04T22:15:00.516Z,97715.63
2022-08-04T22:17:35.393Z,97688.09
2022-08-04T22:20:02.573Z,97701.97
2022-08-04T22:30:36.821Z,97708.31
2022-08-04T22:33:07.496Z,97691.75
2022-08-04T22:35:43.765Z,97709.19
2022-08-04T22:38:28.032Z,97713.16
2022-08-04T22:41:10.059Z,97703.69
2022-08-04T22:43:38.080Z,97710.78
2022-08-04T22:48:53.257Z,97703.31
2022-08-04T22:51:24.133Z,97686.44
2022-08-04T22:53:54.054Z,97710.09
2022-08-04T22:56:38.145Z,97705.78
2022-08-04T22:59:06.687Z,97695.53
2022-08-04T23:02:00.702Z,97697.16
2022-08-04T23:04:23.748Z,97696.78
2022-08-04T23:06:54.777Z,97700.22
2022-08-04T23:09:49.395Z,97705.34
2022-08-04T23:12:27.812Z,97710.47
2022-08-04T23:14:55.943Z,97684.13
2022-08-04T23:17:23.313Z,97698.94
2022-08-04T23:19:57.694Z,97703.06
2022-08-04T23:22:41.021Z,97680.81
2022-08-04T23:25:15.863Z,97707.34
2022-08-04T23:27:50.487Z,97697.03
2022-08-04T23:30:21.727Z,97666.28
2022-08-04T23:32:52.593Z,97688.81
2022-08-04T23:35:22.126Z,97688.28
2022-08-04T23:37:57.713Z,97696.94
2022-08-04T23:40:34.053Z,97677.59
2022-08-04T23:43:16.860Z,97670.34
2022-08-04T23:46:07.732Z,97693.56
2022-08-04T23:48:36.069Z,97691.09
2022-08-04T23:51:15.593Z,97695.19
2022-08-04T23:54:03.363Z,97698.25
2022-08-04T23:56:31.839Z,97684.38
2022-08-04T23:59:00.042Z,97671.59
